Kieffer, West Virginia
Current Conditions -  °F | °C
As of 8:15 PM on Tuesday 27 Jan 2015 (Local Time) from KLWB Reporting Station
Light Snow Light Snow  
Wind Chill:   Ceiling: 2800
Heat Index: 20°   Visibility: 5mi
Dew Point: 11°   Wind: 10mph
Humidity: 69%   Direction: 310°NW
Pressure: 29.97"   Gusts: 16mph
Location:  37.94°N, 80.61°W
Report Text: KLWB 280115Z AUTO 31009G14KT 5SM -SN SCT018 OVC028 M07/M11 A2997 RMK AO2 T10661115
Loading
Personal Weather Stations






























Interactive Weather Map New forecast layout! Learn more

10-Day Weather Forecast

Advertisements
Track Severe Weather on mobile